createdAt,value
2023-03-16T00:00:00.366Z,99258.72
2023-03-16T00:02:32.967Z,99259.56
2023-03-16T00:05:03.571Z,99254.44
2023-03-16T00:07:32.631Z,99252.75
2023-03-16T00:10:01.523Z,99251.00
2023-03-16T00:12:34.931Z,99245.09
2023-03-16T00:15:07.659Z,99244.25
2023-03-16T00:17:40.267Z,99239.09
2023-03-16T00:20:12.969Z,99217.72
2023-03-16T00:22:41.999Z,99226.41
2023-03-16T00:25:16.276Z,99233.16
2023-03-16T00:27:47.946Z,99226.31
2023-03-16T00:30:16.581Z,99230.59
2023-03-16T00:32:46.341Z,99227.19
2023-03-16T00:35:19.359Z,99224.63
2023-03-16T00:37:48.125Z,99229.75
2023-03-16T00:40:17.494Z,99237.41
2023-03-16T00:42:46.071Z,99234.84
2023-03-16T00:45:14.563Z,99246.03
2023-03-16T00:47:44.534Z,99241.75
2023-03-16T00:50:22.436Z,99243.53
2023-03-16T00:52:54.463Z,99244.38
2023-03-16T00:55:23.005Z,99240.97
2023-03-16T00:57:51.539Z,99240.13
2023-03-16T01:00:21.640Z,99242.66
2023-03-16T01:02:50.081Z,99240.06
2023-03-16T01:05:23.320Z,99235.00
2023-03-16T01:07:55.392Z,99234.09
2023-03-16T01:10:34.816Z,99235.91
2023-03-16T01:13:08.647Z,99229.88
2023-03-16T01:15:39.156Z,99232.38
2023-03-16T01:18:09.411Z,99228.03
2023-03-16T01:20:39.366Z,99232.31
2023-03-16T01:23:08.082Z,99236.56
2023-03-16T01:25:36.935Z,99249.38
2023-03-16T01:28:05.698Z,99247.59
2023-03-16T01:30:40.507Z,99241.50
2023-03-16T01:33:10.303Z,99244.00
2023-03-16T01:35:40.045Z,99256.00
2023-03-16T01:38:10.957Z,99258.56
2023-03-16T01:40:40.511Z,99249.16
2023-03-16T01:43:09.241Z,99244.00
2023-03-16T01:46:18.431Z,99243.09
2023-03-16T01:49:08.223Z,99246.50
2023-03-16T01:51:46.284Z,99252.56
2023-03-16T01:54:19.944Z,99267.09
2023-03-16T01:56:55.507Z,99255.91
2023-03-16T01:59:27.863Z,99250.72
2023-03-16T02:01:56.838Z,99263.66
2023-03-16T02:04:36.541Z,99256.75
2023-03-16T02:07:09.056Z,99263.56
2023-03-16T02:09:39.550Z,99252.44
2023-03-16T02:12:09.173Z,99251.63
2023-03-16T02:14:41.883Z,99255.16
2023-03-16T02:17:10.738Z,99257.59
2023-03-16T02:19:46.103Z,99254.19
2023-03-16T02:22:16.524Z,99269.50
2023-03-16T02:24:44.902Z,99263.59
2023-03-16T02:27:15.200Z,99267.75
2023-03-16T02:29:57.652Z,99259.25
2023-03-16T02:32:35.724Z,99255.78
2023-03-16T02:35:04.936Z,99258.41
2023-03-16T02:37:34.551Z,99260.16
2023-03-16T02:40:15.170Z,99261.75
2023-03-16T02:42:44.429Z,99260.16
2023-03-16T02:45:17.686Z,99256.69
2023-03-16T02:47:48.128Z,99255.84
2023-03-16T02:50:17.696Z,99251.56
2023-03-16T02:52:49.028Z,99243.03
2023-03-16T02:55:21.780Z,99246.50
2023-03-16T02:57:50.284Z,99247.31
2023-03-16T03:00:22.603Z,99247.31
2023-03-16T03:02:53.275Z,99243.88
2023-03-16T03:05:22.346Z,99241.38
2023-03-16T03:07:51.405Z,99239.63
2023-03-16T03:10:20.173Z,99251.56
2023-03-16T03:12:50.324Z,99250.78
2023-03-16T03:15:19.511Z,99246.63
2023-03-16T03:17:59.718Z,99253.47
2023-03-16T03:20:33.296Z,99249.19
2023-03-16T03:23:05.476Z,99240.63
2023-03-16T03:25:35.087Z,99239.78
2023-03-16T03:28:05.841Z,99244.06
2023-03-16T03:30:34.444Z,99238.94
2023-03-16T03:33:04.530Z,99232.09
2023-03-16T03:35:33.558Z,99228.78
2023-03-16T03:38:03.129Z,99233.94
2023-03-16T03:40:32.229Z,99227.91
2023-03-16T03:43:04.938Z,99214.25
2023-03-16T03:45:36.499Z,99210.06
2023-03-16T03:48:07.201Z,99209.06
2023-03-16T03:50:35.735Z,99207.44
2023-03-16T03:53:19.770Z,99217.72
2023-03-16T03:56:10.221Z,99227.00
2023-03-16T03:58:39.869Z,99226.25
2023-03-16T04:01:08.942Z,99215.97
2023-03-16T04:03:39.280Z,99231.31
2023-03-16T04:06:09.479Z,99226.16
2023-03-16T04:08:38.352Z,99233.94
2023-03-16T04:11:12.445Z,99222.84
2023-03-16T04:13:43.728Z,99218.59
2023-03-16T04:16:16.320Z,99216.81
2023-03-16T04:18:49.144Z,99216.75
2023-03-16T04:21:18.842Z,99218.44
2023-03-16T04:23:49.200Z,99210.78
2023-03-16T04:26:18.446Z,99215.03
2023-03-16T04:28:49.351Z,99221.78
2023-03-16T04:31:20.517Z,99222.59
2023-03-16T04:33:54.871Z,99214.91
2023-03-16T04:36:25.350Z,99226.81
2023-03-16T04:38:56.814Z,99239.72
2023-03-16T04:41:25.958Z,99234.59
2023-03-16T04:44:02.252Z,99231.19
2023-03-16T04:46:32.619Z,99243.03
2023-03-16T04:49:09.229Z,99242.19
2023-03-16T04:51:40.727Z,99245.53
2023-03-16T04:54:13.464Z,99255.72
2023-03-16T04:56:44.554Z,99258.44
2023-03-16T04:59:27.064Z,99255.00
2023-03-16T05:02:08.964Z,99259.25
2023-03-16T05:04:39.703Z,99260.91
2023-03-16T05:07:11.802Z,99271.97
2023-03-16T05:09:43.927Z,99266.03
2023-03-16T05:12:13.343Z,99257.38
2023-03-16T05:14:42.102Z,99260.00
2023-03-16T05:17:22.645Z,99266.94
2023-03-16T05:19:53.145Z,99265.16
2023-03-16T05:22:24.816Z,99261.72
2023-03-16T05:25:15.103Z,99269.44
2023-03-16T05:27:48.582Z,99276.22
2023-03-16T05:30:24.020Z,99274.53
2023-03-16T05:32:57.910Z,99283.22
2023-03-16T05:35:29.365Z,99272.06
2023-03-16T05:38:02.713Z,99276.22
2023-03-16T05:40:33.324Z,99274.47
2023-03-16T05:43:23.260Z,99274.56
2023-03-16T05:45:54.804Z,99275.53
2023-03-16T05:48:25.827Z,99266.88
2023-03-16T05:51:02.740Z,99263.47
2023-03-16T05:53:32.114Z,99272.00
2023-03-16T05:56:09.282Z,99277.25
2023-03-16T05:58:43.412Z,99280.81
2023-03-16T06:01:13.536Z,99285.09
2023-03-16T06:03:44.628Z,99285.16
2023-03-16T06:06:21.878Z,99279.91
2023-03-16T06:08:56.889Z,99279.97
2023-03-16T06:11:27.700Z,99284.19
2023-03-16T06:13:59.622Z,99282.38
2023-03-16T06:16:31.219Z,99285.84
2023-03-16T06:19:01.413Z,99282.47
2023-03-16T06:21:35.471Z,99291.97
2023-03-16T06:24:11.190Z,99292.72
2023-03-16T06:26:40.256Z,99303.81
2023-03-16T06:29:12.292Z,99320.09
2023-03-16T06:31:42.292Z,99308.13
2023-03-16T06:34:11.989Z,99309.84
2023-03-16T06:36:43.148Z,99304.00
2023-03-16T06:39:14.833Z,99312.78
2023-03-16T06:41:49.702Z,99298.16
2023-03-16T06:44:19.536Z,99305.66
2023-03-16T06:47:00.797Z,99309.97
2023-03-16T06:49:29.714Z,99306.50
2023-03-16T06:52:00.886Z,99311.63
2023-03-16T06:54:29.716Z,99314.28
2023-03-16T06:56:59.434Z,99317.69
2023-03-16T06:59:29.310Z,99313.28
2023-03-16T07:01:59.094Z,99318.47
2023-03-16T07:04:27.711Z,99309.34
2023-03-16T07:06:56.332Z,99304.25
2023-03-16T07:09:26.201Z,99304.44
2023-03-16T07:11:54.532Z,99300.25
2023-03-16T07:14:23.532Z,99315.66
2023-03-16T07:16:54.103Z,99311.41
2023-03-16T07:19:24.566Z,99311.31
2023-03-16T07:21:54.048Z,99310.53
2023-03-16T07:24:25.448Z,99303.56
2023-03-16T07:26:54.139Z,99308.91
2023-03-16T07:29:28.340Z,99308.91
2023-03-16T07:31:58.162Z,99300.50
2023-03-16T07:34:35.651Z,99301.44
2023-03-16T07:37:04.163Z,99297.13
2023-03-16T07:39:38.719Z,99287.75
2023-03-16T07:42:12.506Z,99297.84
2023-03-16T07:45:01.749Z,99290.41
2023-03-16T07:47:31.788Z,99287.00
2023-03-16T07:50:04.875Z,99286.81
2023-03-16T07:52:37.543Z,99279.13
2023-03-16T07:55:12.157Z,99276.66
2023-03-16T07:57:42.326Z,99281.88
2023-03-16T08:00:14.294Z,99285.44
2023-03-16T08:02:45.309Z,99284.66
2023-03-16T08:05:17.398Z,99288.09
2023-03-16T08:07:53.094Z,99288.09
2023-03-16T08:10:27.021Z,99295.63
2023-03-16T08:13:06.160Z,99296.34
2023-03-16T08:15:35.929Z,99310.19
2023-03-16T08:18:21.502Z,99306.66
2023-03-16T08:20:52.376Z,99310.81
2023-03-16T08:23:21.369Z,99305.72
2023-03-16T08:25:53.621Z,99315.97
2023-03-16T08:28:26.202Z,99305.59
2023-03-16T08:30:58.643Z,99304.75
2023-03-16T08:33:40.019Z,99306.53
2023-03-16T08:36:11.847Z,99291.16
2023-03-16T08:38:45.395Z,99300.63
2023-03-16T08:41:19.082Z,99302.28
2023-03-16T08:43:51.367Z,99292.09
2023-03-16T08:46:21.915Z,99292.13
2023-03-16T08:48:57.041Z,99298.13
2023-03-16T08:51:31.349Z,99306.75
2023-03-16T08:54:00.285Z,99305.94
2023-03-16T08:56:36.544Z,99295.66
2023-03-16T08:59:10.479Z,99311.78
2023-03-16T09:01:45.892Z,99308.38
2023-03-16T09:04:15.254Z,99309.13
2023-03-16T09:06:44.308Z,99309.88
2023-03-16T09:09:12.681Z,99314.22
2023-03-16T09:11:42.742Z,99310.69
2023-03-16T09:14:11.593Z,99302.97
2023-03-16T09:16:40.292Z,99304.84
2023-03-16T09:19:12.023Z,99306.69
2023-03-16T09:21:41.459Z,99299.91
2023-03-16T09:24:15.082Z,99298.25
2023-03-16T09:26:45.816Z,99302.56
2023-03-16T09:29:14.827Z,99300.84
2023-03-16T09:31:43.503Z,99305.19
2023-03-16T09:34:11.996Z,99296.72
2023-03-16T09:36:43.586Z,99306.91
2023-03-16T09:39:13.550Z,99303.50
2023-03-16T09:41:49.905Z,99291.59
2023-03-16T09:44:29.385Z,99293.22
2023-03-16T09:47:00.469Z,99303.41
2023-03-16T09:49:32.672Z,99294.09
2023-03-16T09:52:08.099Z,99301.78
2023-03-16T09:54:43.306Z,99303.50
2023-03-16T09:57:26.006Z,99301.66
2023-03-16T09:59:55.191Z,99306.03
2023-03-16T10:02:40.671Z,99304.31
2023-03-16T10:05:11.155Z,99313.63
2023-03-16T10:07:48.338Z,99314.47
2023-03-16T10:10:24.037Z,99319.50
2023-03-16T10:12:54.957Z,99316.03
2023-03-16T10:15:27.488Z,99311.75
2023-03-16T10:18:01.367Z,99300.72
2023-03-16T10:20:33.503Z,99310.22
2023-03-16T10:23:09.692Z,99310.25
2023-03-16T10:25:46.236Z,99308.44
2023-03-16T10:28:18.377Z,99309.31
2023-03-16T10:30:51.505Z,99305.03
2023-03-16T10:33:28.135Z,99315.31
2023-03-16T10:36:01.646Z,99311.66
2023-03-16T10:38:33.245Z,99317.66
2023-03-16T10:41:02.514Z,99316.56
2023-03-16T10:43:32.454Z,99322.69
2023-03-16T10:46:02.878Z,99321.09
2023-03-16T10:48:35.004Z,99323.72
2023-03-16T10:51:07.130Z,99322.88
2023-03-16T10:53:37.432Z,99321.16
2023-03-16T10:56:13.261Z,99321.88
2023-03-16T10:58:46.493Z,99319.13
2023-03-16T11:01:20.877Z,99322.63
2023-03-16T11:03:53.464Z,99318.28
2023-03-16T11:06:25.015Z,99316.66
2023-03-16T11:08:55.209Z,99325.03
2023-03-16T11:11:30.262Z,99325.81
2023-03-16T11:14:01.601Z,99325.88
2023-03-16T11:16:33.220Z,99327.59
2023-03-16T11:19:05.689Z,99325.88
2023-03-16T11:21:41.231Z,99336.06
2023-03-16T11:24:17.285Z,99321.50
2023-03-16T11:26:48.891Z,99324.06
2023-03-16T11:29:22.258Z,99316.38
2023-03-16T11:31:53.594Z,99324.16
2023-03-16T11:34:25.881Z,99322.41
2023-03-16T11:36:56.229Z,99328.50
2023-03-16T11:39:40.671Z,99329.41
2023-03-16T11:42:25.532Z,99332.75
2023-03-16T11:44:59.529Z,99327.59
2023-03-16T11:47:44.461Z,99343.81
2023-03-16T11:50:16.259Z,99352.44
2023-03-16T11:52:50.888Z,99351.59
2023-03-16T11:55:29.067Z,99346.41
2023-03-16T11:58:05.895Z,99349.81
2023-03-16T12:00:44.756Z,99356.78
2023-03-16T12:03:38.064Z,99352.44
2023-03-16T12:06:23.384Z,99350.66
2023-03-16T12:09:08.459Z,99363.59
2023-03-16T12:11:41.623Z,99357.56
2023-03-16T12:14:16.718Z,99364.53
2023-03-16T12:16:49.834Z,99367.88
2023-03-16T12:19:23.263Z,99359.09
2023-03-16T12:22:01.411Z,99359.94
2023-03-16T12:24:33.303Z,99352.31
2023-03-16T12:27:02.550Z,99364.31
2023-03-16T12:29:36.958Z,99361.75
2023-03-16T12:32:10.678Z,99368.53
2023-03-16T12:34:43.769Z,99366.75
2023-03-16T12:37:20.596Z,99372.69
2023-03-16T12:40:09.383Z,99380.47
2023-03-16T12:43:01.920Z,99369.03
2023-03-16T12:45:35.472Z,99375.97
2023-03-16T12:48:12.791Z,99380.25
2023-03-16T12:50:52.693Z,99383.59
2023-03-16T12:53:40.500Z,99386.91
2023-03-16T12:56:12.717Z,99388.50
2023-03-16T12:58:49.457Z,99398.72
2023-03-16T13:01:20.042Z,99391.03
2023-03-16T13:03:51.429Z,99397.84
2023-03-16T13:06:22.481Z,99391.06
2023-03-16T13:08:54.510Z,99400.31
2023-03-16T13:11:23.084Z,99399.41
2023-03-16T13:13:53.777Z,99398.59
2023-03-16T13:16:28.691Z,99397.78
2023-03-16T13:18:58.473Z,99400.31
2023-03-16T13:21:39.457Z,99395.13
2023-03-16T13:24:18.235Z,99389.09
2023-03-16T13:26:48.245Z,99391.63
2023-03-16T13:29:23.902Z,99388.31
2023-03-16T13:31:53.952Z,99389.97
2023-03-16T13:34:25.559Z,99390.81
2023-03-16T13:36:57.071Z,99393.19
2023-03-16T13:39:28.544Z,99385.56
2023-03-16T13:42:03.442Z,99389.81
2023-03-16T13:44:33.026Z,99392.34
2023-03-16T13:47:07.210Z,99394.84
2023-03-16T13:49:45.237Z,99388.75
2023-03-16T13:52:16.973Z,99389.72
2023-03-16T13:54:45.427Z,99394.84
2023-03-16T13:57:14.419Z,99394.72
2023-03-16T13:59:43.814Z,99399.97
2023-03-16T14:02:19.278Z,99390.34
2023-03-16T14:04:49.376Z,99394.56
2023-03-16T14:07:19.757Z,99398.84
2023-03-16T14:09:49.954Z,99395.47
2023-03-16T14:12:20.471Z,99399.69
2023-03-16T14:14:51.411Z,99394.56
2023-03-16T14:17:22.288Z,99396.28
2023-03-16T14:19:58.725Z,99393.75
2023-03-16T14:22:34.112Z,99399.78
2023-03-16T14:25:05.621Z,99389.50
2023-03-16T14:27:47.659Z,99392.06
2023-03-16T14:30:18.526Z,99384.41
2023-03-16T14:32:57.907Z,99385.16
2023-03-16T14:35:30.713Z,99398.84
2023-03-16T14:38:09.944Z,99401.34
2023-03-16T14:40:40.352Z,99398.81
2023-03-16T14:43:10.956Z,99396.19
2023-03-16T14:45:39.571Z,99409.84
2023-03-16T14:48:17.088Z,99418.47
2023-03-16T14:50:55.770Z,99430.34
2023-03-16T14:53:24.797Z,99431.16
2023-03-16T14:55:53.676Z,99438.00
2023-03-16T14:58:22.439Z,99425.97
2023-03-16T15:00:53.699Z,99433.59
2023-03-16T15:03:25.133Z,99439.59
2023-03-16T15:05:56.043Z,99439.66
2023-03-16T15:08:31.597Z,99447.25
2023-03-16T15:11:03.233Z,99443.94
2023-03-16T15:13:53.859Z,99448.97
2023-03-16T15:16:23.532Z,99451.44
2023-03-16T15:18:52.329Z,99440.28
2023-03-16T15:21:24.857Z,99438.63
2023-03-16T15:23:53.492Z,99442.00
2023-03-16T15:26:26.330Z,99448.84
2023-03-16T15:28:55.161Z,99446.31
2023-03-16T15:31:23.836Z,99451.38
2023-03-16T15:33:52.583Z,99453.91
2023-03-16T15:36:24.389Z,99460.78
2023-03-16T15:38:54.915Z,99464.22
2023-03-16T15:41:24.962Z,99464.22
2023-03-16T15:44:00.760Z,99465.09
2023-03-16T15:46:29.363Z,99477.13
2023-03-16T15:48:57.763Z,99481.34
2023-03-16T15:51:29.100Z,99477.06
2023-03-16T15:53:59.661Z,99474.50
2023-03-16T15:56:30.494Z,99477.13
2023-03-16T15:59:01.241Z,99491.59
2023-03-16T16:01:34.984Z,99478.66
2023-03-16T16:04:03.647Z,99492.28
2023-03-16T16:06:33.425Z,99510.97
2023-03-16T16:09:02.305Z,99517.75
2023-03-16T16:11:30.856Z,99520.31
2023-03-16T16:13:59.608Z,99527.94
2023-03-16T16:16:29.852Z,99530.38
2023-03-16T16:18:58.373Z,99534.69
2023-03-16T16:21:29.209Z,99543.25
2023-03-16T16:23:59.367Z,99550.03
2023-03-16T16:26:46.997Z,99545.59
2023-03-16T16:29:17.496Z,99548.00
2023-03-16T16:31:46.185Z,99552.22
2023-03-16T16:34:15.613Z,99558.16
2023-03-16T16:36:44.041Z,99551.69
2023-03-16T16:39:13.947Z,99561.00
2023-03-16T16:41:44.365Z,99564.22
2023-03-16T16:44:17.271Z,99555.72
2023-03-16T16:46:46.037Z,99571.06
2023-03-16T16:49:17.954Z,99579.59
2023-03-16T16:51:46.616Z,99576.03
2023-03-16T16:54:18.482Z,99577.66
2023-03-16T16:56:47.850Z,99582.94
2023-03-16T16:59:18.843Z,99602.50
2023-03-16T17:01:50.266Z,99601.63
2023-03-16T17:04:23.365Z,99598.97
2023-03-16T17:06:55.521Z,99599.78
2023-03-16T17:09:29.092Z,99600.59
2023-03-16T17:11:59.834Z,99599.72
2023-03-16T17:14:28.889Z,99601.50
2023-03-16T17:16:59.985Z,99602.28
2023-03-16T17:19:29.597Z,99603.03
2023-03-16T17:21:58.814Z,99602.22
2023-03-16T17:24:29.049Z,99611.63
2023-03-16T17:26:59.175Z,99608.00
2023-03-16T17:29:30.081Z,99596.97
2023-03-16T17:31:58.745Z,99608.00
2023-03-16T17:34:29.005Z,99608.91
2023-03-16T17:36:58.107Z,99605.47
2023-03-16T17:39:29.195Z,99602.16
2023-03-16T17:41:59.335Z,99618.22
2023-03-16T17:44:31.328Z,99612.16
2023-03-16T17:46:59.926Z,99623.28
2023-03-16T17:49:30.809Z,99631.78
2023-03-16T17:51:59.753Z,99638.53
2023-03-16T17:54:29.899Z,99634.09
2023-03-16T17:56:58.376Z,99633.25
2023-03-16T17:59:27.592Z,99630.63
2023-03-16T18:01:56.206Z,99642.59
2023-03-16T18:04:27.836Z,99643.41
2023-03-16T18:06:56.758Z,99642.66
2023-03-16T18:09:25.086Z,99645.38
2023-03-16T18:11:55.005Z,99641.75
2023-03-16T18:14:26.811Z,99630.72
2023-03-16T18:16:56.247Z,99636.47
2023-03-16T18:19:26.892Z,99644.94
2023-03-16T18:21:55.295Z,99648.38
2023-03-16T18:24:26.789Z,99657.75
2023-03-16T18:26:57.980Z,99664.38
2023-03-16T18:29:26.709Z,99665.31
2023-03-16T18:31:55.924Z,99660.16
2023-03-16T18:34:25.444Z,99663.34
2023-03-16T18:36:55.023Z,99656.53
2023-03-16T18:39:24.082Z,99663.41
2023-03-16T18:41:53.075Z,99665.00
2023-03-16T18:44:24.349Z,99670.97
2023-03-16T18:46:55.565Z,99682.88
2023-03-16T18:49:27.937Z,99675.16
2023-03-16T18:51:57.152Z,99668.28
2023-03-16T18:54:27.772Z,99680.31
2023-03-16T18:56:58.857Z,99677.72
2023-03-16T18:59:28.978Z,99680.03
2023-03-16T19:01:58.178Z,99692.88
2023-03-16T19:04:29.398Z,99681.00
2023-03-16T19:06:58.183Z,99692.97
2023-03-16T19:09:28.770Z,99684.41
2023-03-16T19:11:57.422Z,99688.91
2023-03-16T19:14:27.364Z,99686.34
2023-03-16T19:16:57.587Z,99706.78
2023-03-16T19:19:26.362Z,99697.28
2023-03-16T19:21:57.591Z,99704.25
2023-03-16T19:24:30.341Z,99704.16
2023-03-16T19:26:59.249Z,99713.53
2023-03-16T19:29:31.783Z,99733.00
2023-03-16T19:32:02.548Z,99724.53
2023-03-16T19:34:31.556Z,99721.91
2023-03-16T19:37:00.092Z,99734.47
2023-03-16T19:39:28.531Z,99726.75
2023-03-16T19:41:59.030Z,99723.31
2023-03-16T19:44:29.066Z,99726.78
2023-03-16T19:46:59.251Z,99730.94
2023-03-16T19:49:29.520Z,99733.63
2023-03-16T19:51:58.303Z,99735.44
2023-03-16T19:54:28.625Z,99734.47
2023-03-16T19:56:57.845Z,99724.88
2023-03-16T19:59:29.746Z,99736.97
2023-03-16T20:01:58.336Z,99741.38
2023-03-16T20:04:29.129Z,99739.56
2023-03-16T20:06:57.682Z,99736.91
2023-03-16T20:09:26.397Z,99733.47
2023-03-16T20:11:55.007Z,99739.75
2023-03-16T20:14:28.794Z,99746.50
2023-03-16T20:16:57.368Z,99742.94
2023-03-16T20:19:25.882Z,99738.91
2023-03-16T20:21:56.281Z,99746.47
2023-03-16T20:24:24.849Z,99747.44
2023-03-16T20:26:54.129Z,99744.84
2023-03-16T20:29:25.370Z,99743.75
2023-03-16T20:31:53.871Z,99742.13
2023-03-16T20:34:24.179Z,99752.56
2023-03-16T20:36:53.230Z,99755.84
2023-03-16T20:39:22.892Z,99763.34
2023-03-16T20:41:52.190Z,99770.03
2023-03-16T20:44:22.242Z,99763.16
2023-03-16T20:46:51.058Z,99753.75
2023-03-16T20:49:31.429Z,99758.06
2023-03-16T20:52:00.087Z,99759.84
2023-03-16T20:54:29.894Z,99758.28
2023-03-16T20:56:58.864Z,99764.22
2023-03-16T20:59:28.391Z,99753.81
2023-03-16T21:02:01.260Z,99769.31
2023-03-16T21:04:30.165Z,99771.97
2023-03-16T21:06:58.663Z,99775.19
2023-03-16T21:09:27.851Z,99781.25
2023-03-16T21:11:57.713Z,99786.38
2023-03-16T21:14:26.376Z,99786.41
2023-03-16T21:16:55.386Z,99788.09
2023-03-16T21:19:25.011Z,99798.34
2023-03-16T21:21:53.298Z,99794.22
2023-03-16T21:24:22.716Z,99788.19
2023-03-16T21:26:51.268Z,99796.75
2023-03-16T21:29:24.550Z,99799.38
2023-03-16T21:31:53.005Z,99802.88
2023-03-16T21:34:25.159Z,99804.66
2023-03-16T21:36:55.398Z,99796.91
2023-03-16T21:39:25.372Z,99815.84
2023-03-16T21:41:54.405Z,99808.78
2023-03-16T21:44:24.423Z,99811.59
2023-03-16T21:46:53.890Z,99814.03
2023-03-16T21:49:22.439Z,99814.00
2023-03-16T21:51:51.933Z,99814.09
2023-03-16T21:54:20.443Z,99809.03
2023-03-16T21:56:49.011Z,99804.47
2023-03-16T21:59:17.579Z,99811.25
2023-03-16T22:02:01.311Z,99806.16
2023-03-16T22:04:30.872Z,99812.94
2023-03-16T22:06:59.400Z,99821.50
2023-03-16T22:09:30.371Z,99822.28
2023-03-16T22:11:59.357Z,99823.19
2023-03-16T22:14:28.307Z,99827.38
2023-03-16T22:16:58.251Z,99841.94
2023-03-16T22:19:27.395Z,99828.19
2023-03-16T22:21:56.969Z,99825.56
2023-03-16T22:24:27.577Z,99832.41
2023-03-16T22:26:57.014Z,99830.69
2023-03-16T22:29:26.660Z,99852.03
2023-03-16T22:32:03.067Z,99835.06
2023-03-16T22:34:33.979Z,99855.44
2023-03-16T22:37:02.884Z,99831.63
2023-03-16T22:39:32.823Z,99847.06
2023-03-16T22:42:01.517Z,99849.66
2023-03-16T22:44:29.981Z,99842.75
2023-03-16T22:47:00.504Z,99846.19
2023-03-16T22:49:29.552Z,99858.06
2023-03-16T22:51:58.912Z,99868.34
2023-03-16T22:54:28.932Z,99853.94
2023-03-16T22:56:57.747Z,99882.94
2023-03-16T22:59:26.680Z,99859.75
2023-03-16T23:01:55.115Z,99873.44
2023-03-16T23:04:30.079Z,99864.03
2023-03-16T23:06:59.124Z,99863.25
2023-03-16T23:09:27.572Z,99869.03
2023-03-16T23:11:57.616Z,99855.44
2023-03-16T23:14:29.185Z,99862.22
2023-03-16T23:16:57.921Z,99870.78
2023-03-16T23:19:30.042Z,99869.00
2023-03-16T23:22:01.099Z,99875.81
2023-03-16T23:24:29.558Z,99879.19
2023-03-16T23:26:58.251Z,99876.44
2023-03-16T23:29:27.356Z,99880.72
2023-03-16T23:31:56.616Z,99884.16
2023-03-16T23:34:28.054Z,99875.63
2023-03-16T23:36:56.876Z,99884.97
2023-03-16T23:39:26.153Z,99882.38
2023-03-16T23:41:54.535Z,99886.72
2023-03-16T23:44:25.068Z,99902.97
2023-03-16T23:46:53.950Z,99888.41
2023-03-16T23:49:23.811Z,99905.38
2023-03-16T23:51:54.065Z,99907.13
2023-03-16T23:54:24.348Z,99900.22
2023-03-16T23:56:54.949Z,99900.13
2023-03-16T23:59:23.898Z,99902.13
